Hastings Natural History Reservation, California Weather observations

Data are for 10 minute period ending at time listed.
 Day   Time   Solar   Ave.   Ave.  Ave.  Vector  Max.   Baro.   Total    
  of    of     Rad.   Air    Rel.  Wind   Wind   Wind  Press.  Precip.   
Year   Day            Temp.  Hum.  Speed  Dir.   Gust                    
2014   (PST)  Kw/m2    F      %     mph   deg.    mph    mb.     in.     
-------------------------------------------------------------------------
 202   22:50   0.00   58.7    86    1.0    56     2.6   954.5    0.00 
 202   23:00   0.00   58.0    85    1.2    54     2.6   954.5    0.00 
 202   23:10   0.00   57.4    86    0.3    50     1.5   954.3    0.00 
 202   23:20   0.00   56.9    86    0.4    72     1.2   954.2    0.00 
 202   23:30   0.00   56.3    87    0.5    58     1.4   954.3    0.00 
 202   23:40   0.00   56.7    87    0.0    48     0.4   954.4    0.00 
 202   23:50   0.00   57.4    85    0.0    24     0.9   954.5    0.00 
 203    0:00   0.00   57.5    84    1.2    44     2.0   954.4    0.00 
 203    0:10   0.00   57.4    88    0.5    33     1.2   954.4    0.00 
 203    0:20   0.00   57.3    89    0.5    50     1.4   954.4    0.00 
 203    0:30   0.00   57.6    90    0.5    57     1.2   954.4    0.00 
 203    0:40   0.00   57.8    91    0.9    43     1.8   954.6    0.00 
 203    0:50   0.00   57.6    92    0.9    55     2.0   954.5    0.00 
 203    1:00   0.00   57.3    93    1.2    61     2.8   954.5    0.00 
 203    1:10   0.00   57.1    93    1.8    54     2.5   954.4    0.00 
 203    1:20   0.00   56.8    95    1.9    57     2.9   954.4    0.00 
 203    1:30   0.00   56.5    96    1.3    39     2.7   954.2    0.00 
 203    1:40   0.00   56.3    97    1.5    35     2.3   954.3    0.00 
 203    1:50   0.00   56.3    97    1.6    53     2.8   954.2    0.00 
 203    2:00   0.00   55.8    96    1.4    52     2.7   954.1    0.00 
 203    2:10   0.00   55.8    95    1.7    53     2.6   954.2    0.00 
 203    2:20   0.00   55.6    93    1.0    43     1.8   954.2    0.00 
 203    2:30   0.00   55.3    90    0.9    50     1.6   954.3    0.00 
 203    2:40   0.00   55.4    90    0.5    65     1.5   954.3    0.00 
 203    2:50   0.00   55.9    91    1.0    59     2.2   954.4    0.00 
 203    3:00   0.00   55.9    93    0.6    42     1.8   954.3    0.00 
 203    3:10   0.00   55.9    95    0.7    78     2.3   954.3    0.00 
 203    3:20   0.00   55.8    96    1.1   243     3.3   954.3    0.00 
 203    3:30   0.00   55.8    98    0.6    54     2.4   954.4    0.00 
 203    3:40   0.00   55.5    98    1.5    52     2.8   954.4    0.00 
 203    3:50   0.00   55.3    98    1.2    62     2.9   954.3    0.00 
 203    4:00   0.00   55.4    98    0.3    81     1.7   954.2    0.00 
 203    4:10   0.00   55.7    99    0.1    55     1.0   954.2    0.00 
 203    4:20   0.00   55.7    99    0.5    62     2.2   954.3    0.00 
 203    4:30   0.00   55.4    99    1.2    70     3.3   954.2    0.00 
 203    4:40   0.00   55.2    99    0.9    51     1.9   954.1    0.00 
 203    4:50   0.00   55.1    99    0.2     0     1.2   954.1    0.00 
 203    5:00   0.00   55.1    99    0.4    86     1.6   954.1    0.00 
 203    5:10   0.00   55.3    98    0.4    61     1.7   954.1    0.00 
 203    5:20   0.00   55.5    97    0.4   260     1.7   954.2    0.00 
 203    5:30   0.00   55.9    96    1.2   240     2.9   954.4    0.00 
 203    5:40   0.00   55.9    96    0.2   257     0.9   954.4    0.00 
 203    5:50   0.00   55.9    95    0.5    55     1.5   954.5    0.00 
 203    6:00   0.00   56.3    95    0.4   250     1.7   954.6    0.00 
 203    6:10   0.00   56.3    94    1.0    83     2.5   954.6    0.00 
 203    6:20   0.00   56.2    95    0.2   276     1.2   954.8    0.00 
 203    6:30   0.00   56.3    96    0.0   100     0.4   954.8    0.00 
 203    6:40   0.00   56.4    96    0.5    78     1.5   954.9    0.00 
 203    6:50   0.01   56.5    97    0.6   287     1.9   954.8    0.00 
 203    7:00   0.02   56.7    98    0.1    45     1.3   954.8    0.00 
 203    7:10   0.02   56.8    98    0.4   264     1.2   954.9    0.00 
 203    7:20   0.04   56.9    99    0.7   255     2.3   954.9    0.00 
 203    7:30   0.04   57.0    99    0.1   262     0.9   955.1    0.00 
 203    7:40   0.05   57.2    99    0.8    62     2.3   955.1    0.00 
 203    7:50   0.06   57.3    99    0.3   320     0.9   955.2    0.00 
 203    8:00   0.08   57.8    98    1.2   247     3.2   955.2    0.00 
 203    8:10   0.10   57.9    96    1.0   245     3.1   955.2    0.00 
 203    8:20   0.13   58.5    94    0.9     6     2.0   955.1    0.00 
 203    8:30   0.12   59.3    89    0.9   251     3.4   955.2    0.00 
 203    8:40   0.12   59.6    88    2.2   237     4.4   955.2    0.00 
 203    8:50   0.14   59.8    88    2.4   244     5.5   955.3    0.00 
 203    9:00   0.16   60.2    86    1.3   247     3.9   955.4    0.00 
 203    9:10   0.14   60.3    86    2.3   265     5.6   955.4    0.00 
 203    9:20   0.26   61.3    84    1.0   348     2.9   955.3    0.00 
 203    9:30   0.40   62.6    80    2.4   251     6.1   955.2    0.00 
 203    9:40   0.37   63.4    78    1.9   255     5.8   955.1    0.00 
 203    9:50   0.40   63.0    79    4.5   248     8.6   955.1    0.00 
 203   10:00   0.42   62.2    81    3.9   246     8.8   955.1    0.00 
 203   10:10   0.55   63.4    77    3.5   246    10.3   955.2    0.00 
 203   10:20   0.54   63.1    78    4.1   251     8.9   955.2    0.00 
 203   10:30   0.61   64.0    76    3.6   258     9.2   955.2    0.00 
 203   10:40   0.58   64.0    75    4.3   247    11.0   955.2    0.00 
 203   10:50   0.54   63.7    76    3.4   252     6.9   955.3    0.00 
 203   11:00   0.60   64.1    74    3.9   246     8.0   955.3    0.00 
 203   11:10   0.63   64.5    73    4.0   241     9.5   955.3    0.00 
 203   11:20   0.66   66.4    69    2.7   296     7.9   955.3    0.00 
 203   11:30   0.74   66.4    69    3.3   278     7.2   955.2    0.00 
 203   11:40   0.82   67.0    67    3.8   246     8.9   955.2    0.00 
 203   11:50   0.78   68.1    65    1.9   252     4.6   955.2    0.00 
 203   12:00   0.79   68.8    63    4.4   247     9.3   955.1    0.00 
 203   12:10   0.89   69.2    62    3.9   247    10.3   955.1    0.00 
 203   12:20   0.87   70.6    60    3.2   264     7.2   955.1    0.00 
 203   12:30   0.89   72.1    57    3.0   272     8.0   955.1    0.00 
 203   12:40   0.88   72.1    57    4.2   252     8.7   955.1    0.00 
 203   12:50   0.89   72.0    57    4.3   255     9.3   955.1    0.00 
 203   13:00   0.88   73.8    54    3.6   259     9.9   955.0    0.00 
 203   13:10   0.86   73.4    54    5.0   242     9.3   954.9    0.00 
 203   13:20   0.89   74.0    53    4.2   248    10.0   954.9    0.00 
 203   13:30   0.87   74.8    52    4.2   245     9.9   954.9    0.00 
 203   13:40   0.90   76.7    49    2.7   257     9.0   955.0    0.00 
 203   13:50   0.90   76.5    49    3.6   252    10.4   955.0    0.00 
 203   14:00   0.89   77.5    48    3.4   267    10.3   955.0    0.00 
 203   14:10   0.90   77.1    48    2.9   264     7.3   954.9    0.00 
 203   14:20   0.86   77.5    47    5.1   253    12.2   954.8    0.00 
 203   14:30   0.85   77.9    47    4.8   254    12.1   954.9    0.00 
 203   14:40   0.87   78.3    46    4.0   266    10.2   955.0    0.00 
 203   14:50   0.87   78.7    45    3.6   257     9.8   955.0    0.00 
 203   15:00   0.86   78.9    45    4.0   263    11.8   955.0    0.00 
 203   15:10   0.82   76.7    47    6.7   250    14.0   955.0    0.00 
 203   15:20   0.81   77.5    46    3.9   261    10.4   955.0    0.00 
 203   15:30   0.81   78.0    45    3.8   288    12.0   955.0    0.00 
 203   15:40   0.78   77.2    46    4.3   261    11.6   955.0    0.00 
 203   15:50   0.77   76.7    46    4.5   258    11.2   955.1    0.00 
 203   16:00   0.72   77.0    46    3.2   263     9.9   955.1    0.00 
 203   16:10   0.75   76.2    46    4.9   258    11.5   955.0    0.00 
 203   16:20   0.68   76.4    46    3.0   258     8.8   955.0    0.00 
 203   16:30   0.67   76.8    45    4.2   261    12.3   955.0    0.00 
 203   16:40   0.65   75.8    46    5.0   251    10.4   955.0    0.00 
 203   16:50   0.56   75.8    46    3.2   252    10.7   955.0    0.00 
 203   17:00   0.61   75.0    47    5.9   247    12.1   954.9    0.00 
 203   17:10   0.46   74.5    47    3.6   260    11.2   954.9    0.00 
 203   17:20   0.48   75.3    46    3.7   258     8.6   954.9    0.00 
 203   17:30   0.47   74.0    47    4.1   263     8.7   954.9    0.00 
 203   17:40   0.48   73.5    48    4.5   257    11.0   954.9    0.00 
 203   17:50   0.45   73.0    48    3.8   262    11.9   954.9    0.00 
 203   18:00   0.45   72.6    49    3.7   256    11.1   954.9    0.00 
 203   18:10   0.39   72.8    49    3.0   291     8.4   954.8    0.00 
 203   18:20   0.38   71.8    51    4.4   258    10.4   954.9    0.00 
 203   18:30   0.36   71.2    52    3.5   257     8.0   954.8    0.00 
 203   18:40   0.33   69.7    55    4.0   259     9.3   954.8    0.00 
 203   18:50   0.30   68.5    57    4.2   264     8.9   954.8    0.00 
 203   19:00   0.10   67.7    59    4.1   255    10.5   954.6    0.00 
 203   19:10   0.04   67.0    61    3.2   256     8.0   954.7    0.00 
 203   19:20   0.03   66.1    62    3.7   251     8.2   954.7    0.00 
 203   19:30   0.02   65.8    64    1.8   273     6.2   954.8    0.00 
 203   19:40   0.01   65.1    65    2.8   253     6.4   954.9    0.00 
 203   19:50   0.01   64.2    67    2.9   254     6.1   955.0    0.00 
 203   20:00   0.01   63.7    68    1.4   269     4.9   955.2    0.00 
 203   20:10   0.01   63.2    70    1.2   268     4.0   955.3    0.00 
 203   20:20   0.00   62.5    71    1.6   262     5.0   955.4    0.00 
 203   20:30   0.00   62.0    72    1.9   257     5.0   955.6    0.00 
 203   20:40   0.00   61.7    73    1.3   246     3.3   955.7    0.00 
 203   20:50   0.00   61.3    74    0.7   280     2.9   955.8    0.00 
 203   21:00   0.00   61.1    74    0.6   275     2.8   956.0    0.00 
 203   21:10   0.00   60.6    75    1.2   249     4.0   956.1    0.00 
 203   21:20   0.00   60.2    76    0.8   249     2.2   956.3    0.00 
 203   21:30   0.00   59.6    77    0.5   238     2.4   956.4    0.00 
 203   21:40   0.00   59.1    78    0.3   250     2.1   956.5    0.00 
 203   21:50   0.00   58.4    79    0.2   304     1.6   956.6    0.00 
 203   22:00   0.00   57.7    79    0.4    21     1.3   956.7    0.00 
 203   22:10   0.00   57.0    81    1.0    45     1.6   956.7    0.00 
 203   22:20   0.00   56.2    81    1.5    44     2.0   956.8    0.00 
 203   22:30   0.00   55.6    82    1.4    46     1.9   956.9    0.00 
 203   22:40   0.00   55.1    82    1.1    42     1.7   957.0    0.00 

Return to Hastings Natural History Reservation graphs page.


Western Regional Climate Center,wrcc@dri.edu